createdAt,value
2022-12-04T00:04:11.093Z,15.30
2022-12-04T00:09:15.324Z,13.63
2022-12-04T00:14:18.252Z,17.57
2022-12-04T00:19:20.975Z,15.93
2022-12-04T00:24:25.070Z,17.03
2022-12-04T00:29:27.941Z,16.27
2022-12-04T00:34:30.697Z,16.20
2022-12-04T00:39:34.886Z,15.73
2022-12-04T00:44:37.671Z,14.73
2022-12-04T00:49:40.390Z,17.30
2022-12-04T00:54:44.564Z,16.10
2022-12-04T00:59:47.364Z,15.33
2022-12-04T01:04:50.110Z,15.77
2022-12-04T01:09:54.561Z,15.23
2022-12-04T01:14:57.408Z,16.40
2022-12-04T01:20:00.127Z,16.40
2022-12-04T01:25:04.624Z,15.70
2022-12-04T01:30:08.582Z,13.50
2022-12-04T01:35:11.358Z,15.13
2022-12-04T01:40:17.029Z,16.53
2022-12-04T01:45:38.289Z,17.20
2022-12-04T01:50:42.269Z,16.10
2022-12-04T01:55:46.805Z,15.60
2022-12-04T02:00:56.878Z,15.53
2022-12-04T02:06:01.211Z,16.83
2022-12-04T02:11:13.705Z,14.90
2022-12-04T02:16:21.441Z,15.60
2022-12-04T02:21:29.783Z,16.10
2022-12-04T02:26:45.876Z,15.03
2022-12-04T02:31:52.966Z,16.30
2022-12-04T02:37:00.102Z,16.77
2022-12-04T02:42:08.770Z,17.13
2022-12-04T02:47:14.895Z,17.30
2022-12-04T02:52:22.008Z,14.20
2022-12-04T02:57:29.987Z,15.80
2022-12-04T03:02:36.575Z,16.37
2022-12-04T03:07:42.936Z,15.77
2022-12-04T03:12:50.590Z,17.37
2022-12-04T03:17:57.154Z,16.37
2022-12-04T03:23:04.712Z,18.20
2022-12-04T03:28:10.989Z,17.83
2022-12-04T03:33:18.440Z,17.17
2022-12-04T03:38:24.834Z,18.53
2022-12-04T03:43:29.905Z,17.87
2022-12-04T03:48:40.010Z,17.60
2022-12-04T03:53:45.037Z,19.10
2022-12-04T03:58:53.829Z,18.70
2022-12-04T04:03:59.786Z,18.33
2022-12-04T04:09:06.279Z,18.97
2022-12-04T04:14:30.854Z,18.67
2022-12-04T04:20:05.805Z,20.17
2022-12-04T04:25:10.190Z,17.50
2022-12-04T04:30:13.259Z,19.60
2022-12-04T04:35:21.982Z,19.90
2022-12-04T04:40:28.240Z,22.17
2022-12-04T04:45:35.183Z,19.20
2022-12-04T04:50:39.990Z,17.67
2022-12-04T04:55:43.535Z,18.17
2022-12-04T05:00:51.715Z,18.13
2022-12-04T05:05:55.938Z,18.40
2022-12-04T05:10:58.655Z,18.73
2022-12-04T05:16:02.847Z,20.57
2022-12-04T05:21:08.168Z,17.77
2022-12-04T05:26:11.045Z,20.40
2022-12-04T05:31:13.924Z,22.07
2022-12-04T05:36:18.074Z,19.20
2022-12-04T05:41:20.792Z,20.07
2022-12-04T05:46:23.585Z,19.60
2022-12-04T05:51:27.748Z,21.67
2022-12-04T05:56:30.593Z,21.00
2022-12-04T06:01:33.419Z,20.97
2022-12-04T06:06:38.377Z,18.67
2022-12-04T06:11:42.590Z,22.50
2022-12-04T06:16:47.498Z,22.53
2022-12-04T06:21:53.441Z,21.20
2022-12-04T06:27:26.345Z,21.83
2022-12-04T06:32:21.983Z,23.07
2022-12-04T06:37:26.415Z,22.77
2022-12-04T06:42:29.187Z,23.57
2022-12-04T06:47:32.118Z,21.17
2022-12-04T06:52:36.235Z,23.70
2022-12-04T06:57:39.002Z,22.33
2022-12-04T07:02:41.795Z,23.50
2022-12-04T07:07:45.957Z,21.87
2022-12-04T07:12:48.783Z,23.10
2022-12-04T07:17:51.518Z,21.00
2022-12-04T07:22:55.769Z,21.03
2022-12-04T07:27:58.486Z,22.93
2022-12-04T07:33:01.221Z,21.37
2022-12-04T07:38:05.729Z,22.47
2022-12-04T07:43:08.533Z,22.43
2022-12-04T07:48:11.383Z,21.83
2022-12-04T07:53:15.500Z,23.97
2022-12-04T07:58:18.529Z,23.50
2022-12-04T08:03:21.458Z,19.00
2022-12-04T08:08:25.567Z,22.77
2022-12-04T08:13:28.439Z,23.77
2022-12-04T08:18:31.306Z,22.90
2022-12-04T08:23:36.220Z,24.00
2022-12-04T08:28:39.708Z,21.63
2022-12-04T08:33:43.549Z,23.27
2022-12-04T08:38:48.460Z,22.97
2022-12-04T08:43:53.318Z,26.20
2022-12-04T08:48:56.180Z,21.37
2022-12-04T08:54:02.287Z,24.53
2022-12-04T08:59:05.338Z,23.17
2022-12-04T09:04:08.150Z,25.40
2022-12-04T09:09:12.712Z,25.10
2022-12-04T09:14:15.449Z,23.43
2022-12-04T09:19:18.321Z,24.30
2022-12-04T09:24:22.601Z,26.30
2022-12-04T09:29:27.139Z,24.87
2022-12-04T09:34:29.888Z,25.07
2022-12-04T09:39:34.115Z,24.50
2022-12-04T09:44:40.757Z,26.30
2022-12-04T09:49:47.602Z,27.33
2022-12-04T09:54:52.994Z,27.00
2022-12-04T09:59:56.719Z,26.63
2022-12-04T10:04:59.608Z,25.57
2022-12-04T10:10:06.860Z,25.57
2022-12-04T10:15:20.874Z,25.83
2022-12-04T10:20:34.525Z,24.47
2022-12-04T10:25:42.770Z,27.37
2022-12-04T10:30:46.750Z,21.17
2022-12-04T10:35:52.324Z,24.57
2022-12-04T10:40:59.172Z,24.73
2022-12-04T10:46:01.914Z,26.13
2022-12-04T10:51:05.166Z,24.37
2022-12-04T10:56:14.450Z,24.20
2022-12-04T11:01:17.192Z,25.87
2022-12-04T11:06:25.590Z,24.90
2022-12-04T11:11:31.010Z,22.73
2022-12-04T11:16:37.560Z,23.83
2022-12-04T11:21:40.420Z,25.60
2022-12-04T11:26:44.571Z,24.50
2022-12-04T11:31:51.425Z,24.10
2022-12-04T11:36:56.106Z,26.20
2022-12-04T11:42:06.231Z,25.23
2022-12-04T11:47:18.740Z,23.53
2022-12-04T11:52:27.649Z,22.37
2022-12-04T11:57:37.969Z,23.97
2022-12-04T12:02:55.519Z,22.27
2022-12-04T12:08:03.137Z,21.43
2022-12-04T12:13:14.579Z,26.90
2022-12-04T12:18:35.537Z,23.77
2022-12-04T12:23:47.967Z,26.23
2022-12-04T12:29:11.836Z,21.17
2022-12-04T12:34:19.469Z,25.00
2022-12-04T12:39:25.537Z,24.97
2022-12-04T12:44:35.600Z,25.33
2022-12-04T12:49:42.830Z,26.10
2022-12-04T12:54:49.656Z,22.07
2022-12-04T12:59:56.736Z,24.23
2022-12-04T13:05:01.764Z,22.83
2022-12-04T13:10:12.586Z,22.70
2022-12-04T13:15:18.914Z,22.23
2022-12-04T13:20:24.445Z,23.27
2022-12-04T13:25:37.902Z,25.83
2022-12-04T13:30:47.523Z,25.10
2022-12-04T13:36:03.331Z,27.30
2022-12-04T13:41:07.850Z,24.23
2022-12-04T13:46:25.567Z,23.43
2022-12-04T13:51:39.177Z,25.37
2022-12-04T13:56:43.314Z,25.77
2022-12-04T14:01:50.110Z,25.73
2022-12-04T14:06:53.499Z,25.67
2022-12-04T14:12:00.098Z,26.80
2022-12-04T14:17:05.341Z,25.47
2022-12-04T14:22:27.016Z,24.87
2022-12-04T14:27:43.154Z,25.17
2022-12-04T14:32:48.146Z,24.40
2022-12-04T14:37:54.275Z,27.27
2022-12-04T14:42:57.171Z,22.60
2022-12-04T14:48:23.087Z,24.80
2022-12-04T14:53:36.196Z,23.03
2022-12-04T14:58:39.736Z,23.07
2022-12-04T15:03:45.754Z,25.80
2022-12-04T15:08:53.046Z,24.07
2022-12-04T15:14:06.138Z,23.67
2022-12-04T15:19:18.481Z,25.37
2022-12-04T15:24:24.143Z,22.40
2022-12-04T15:29:28.491Z,22.93
2022-12-04T15:34:38.390Z,24.20
2022-12-04T15:39:41.363Z,23.90
2022-12-04T15:44:52.067Z,24.53
2022-12-04T15:49:56.394Z,22.70
2022-12-04T15:55:01.439Z,22.03
2022-12-04T16:00:06.236Z,24.40
2022-12-04T16:05:14.337Z,25.07
2022-12-04T16:10:23.696Z,22.97
2022-12-04T16:15:31.907Z,23.80
2022-12-04T16:20:37.714Z,26.00
2022-12-04T16:25:40.567Z,25.10
2022-12-04T16:30:43.419Z,24.73
2022-12-04T16:35:47.576Z,21.83
2022-12-04T16:40:50.533Z,26.77
2022-12-04T16:45:55.187Z,21.13
2022-12-04T16:50:59.315Z,24.23
2022-12-04T16:56:02.145Z,25.07
2022-12-04T17:01:06.415Z,22.60
2022-12-04T17:06:10.568Z,25.20
2022-12-04T17:11:14.309Z,25.87
2022-12-04T17:16:19.741Z,23.87
2022-12-04T17:21:24.253Z,24.07
2022-12-04T17:26:27.721Z,26.20
2022-12-04T17:31:31.490Z,21.67
2022-12-04T17:36:35.730Z,25.93
2022-12-04T17:41:38.577Z,25.97
2022-12-04T17:46:41.689Z,25.43
2022-12-04T17:51:46.113Z,24.50
2022-12-04T17:56:52.254Z,25.03
2022-12-04T18:01:57.537Z,27.47
2022-12-04T18:07:01.618Z,27.40
2022-12-04T18:12:04.612Z,26.40
2022-12-04T18:17:07.429Z,25.47
2022-12-04T18:22:11.600Z,28.17
2022-12-04T18:27:14.591Z,24.73
2022-12-04T18:32:17.485Z,24.60
2022-12-04T18:37:21.563Z,26.13
2022-12-04T18:42:24.262Z,24.50
2022-12-04T18:47:27.202Z,27.77
2022-12-04T18:52:31.338Z,23.40
2022-12-04T18:57:34.082Z,28.63
2022-12-04T19:02:36.944Z,27.07
2022-12-04T19:07:41.223Z,27.60
2022-12-04T19:12:44.061Z,26.80
2022-12-04T19:17:47.109Z,27.83
2022-12-04T19:22:51.234Z,25.17
2022-12-04T19:27:54.011Z,23.43
2022-12-04T19:32:56.816Z,26.73
2022-12-04T19:38:00.992Z,23.57
2022-12-04T19:43:03.784Z,24.77
2022-12-04T19:48:06.858Z,24.53
2022-12-04T19:53:11.424Z,28.63
2022-12-04T19:58:14.381Z,24.57
2022-12-04T20:03:17.290Z,22.80
2022-12-04T20:08:21.553Z,27.43
2022-12-04T20:13:24.286Z,25.80
2022-12-04T20:18:27.019Z,25.63
2022-12-04T20:23:31.438Z,25.90
2022-12-04T20:28:34.599Z,28.87
2022-12-04T20:33:37.772Z,27.50
2022-12-04T20:38:42.465Z,24.20
2022-12-04T20:43:46.541Z,27.17
2022-12-04T20:48:49.968Z,27.23
2022-12-04T20:53:55.391Z,24.00
2022-12-04T20:58:58.359Z,26.97
2022-12-04T21:04:01.359Z,26.87
2022-12-04T21:09:06.656Z,24.63
2022-12-04T21:14:42.650Z,27.40
2022-12-04T21:19:46.760Z,21.67
2022-12-04T21:24:50.893Z,24.90
2022-12-04T21:29:54.218Z,26.37
2022-12-04T21:34:57.187Z,27.40
2022-12-04T21:40:01.622Z,25.00
2022-12-04T21:45:08.796Z,24.17
2022-12-04T21:50:11.812Z,23.23
2022-12-04T21:55:16.121Z,25.90
2022-12-04T22:00:19.475Z,23.43
2022-12-04T22:05:22.202Z,23.10
2022-12-04T22:10:26.580Z,26.63
2022-12-04T22:15:29.521Z,25.17
2022-12-04T22:20:32.358Z,25.23
2022-12-04T22:25:37.934Z,26.40
2022-12-04T22:30:40.860Z,25.30
2022-12-04T22:35:43.691Z,26.27
2022-12-04T22:40:48.109Z,24.07
2022-12-04T22:45:50.860Z,24.30
2022-12-04T22:50:57.840Z,25.87
2022-12-04T22:56:06.555Z,24.33
2022-12-04T23:01:10.932Z,23.47
2022-12-04T23:06:14.310Z,25.37
2022-12-04T23:11:20.497Z,24.30
2022-12-04T23:16:24.270Z,23.33
2022-12-04T23:21:27.621Z,20.03
2022-12-04T23:26:34.104Z,22.30
2022-12-04T23:31:37.236Z,22.80
2022-12-04T23:36:40.217Z,20.10
2022-12-04T23:41:44.403Z,21.87
2022-12-04T23:46:47.338Z,21.60
2022-12-04T23:51:50.241Z,19.07
2022-12-04T23:56:54.285Z,20.77
